sensor_id;sensor_type;location;lat;lon;timestamp;temperature;humidity
5394;DHT22;2720;52.396;10.064;2023-03-15T00:01:59;-0.20;99.90
5394;DHT22;2720;52.396;10.064;2023-03-15T00:04:26;-0.20;99.90
5394;DHT22;2720;52.396;10.064;2023-03-15T00:06:53;-0.20;99.90
5394;DHT22;2720;52.396;10.064;2023-03-15T00:09:20;-0.10;99.90
5394;DHT22;2720;52.396;10.064;2023-03-15T00:11:49;-0.20;99.90
5394;DHT22;2720;52.396;10.064;2023-03-15T00:14:17;-0.20;99.90
5394;DHT22;2720;52.396;10.064;2023-03-15T00:16:44;-0.10;99.90
5394;DHT22;2720;52.396;10.064;2023-03-15T00:19:11;-0.20;99.90
5394;DHT22;2720;52.396;10.064;2023-03-15T00:21:39;-0.20;99.90
5394;DHT22;2720;52.396;10.064;2023-03-15T00:24:08;-0.30;99.90
5394;DHT22;2720;52.396;10.064;2023-03-15T00:26:36;-0.20;99.90
5394;DHT22;2720;52.396;10.064;2023-03-15T00:29:03;-0.30;99.90
5394;DHT22;2720;52.396;10.064;2023-03-15T00:31:31;-0.30;99.90
5394;DHT22;2720;52.396;10.064;2023-03-15T00:33:58;-0.30;99.90
5394;DHT22;2720;52.396;10.064;2023-03-15T00:36:26;-0.30;99.90
5394;DHT22;2720;52.396;10.064;2023-03-15T00:38:54;-0.30;99.90
5394;DHT22;2720;52.396;10.064;2023-03-15T00:41:22;-0.20;99.90
5394;DHT22;2720;52.396;10.064;2023-03-15T00:43:49;-0.20;99.90
5394;DHT22;2720;52.396;10.064;2023-03-15T00:46:17;-0.30;99.90
5394;DHT22;2720;52.396;10.064;2023-03-15T00:48:48;-0.20;99.90
5394;DHT22;2720;52.396;10.064;2023-03-15T00:51:16;-0.20;99.90
5394;DHT22;2720;52.396;10.064;2023-03-15T00:53:45;-0.10;99.90
5394;DHT22;2720;52.396;10.064;2023-03-15T00:56:13;-0.10;99.90
5394;DHT22;2720;52.396;10.064;2023-03-15T00:58:42;-0.10;99.90
5394;DHT22;2720;52.396;10.064;2023-03-15T01:01:11;-0.10;99.90
5394;DHT22;2720;52.396;10.064;2023-03-15T01:03:39;-0.10;99.90
5394;DHT22;2720;52.396;10.064;2023-03-15T01:06:09;-0.20;99.90
5394;DHT22;2720;52.396;10.064;2023-03-15T01:08:36;-0.20;99.90
5394;DHT22;2720;52.396;10.064;2023-03-15T01:11:05;-0.10;99.90
5394;DHT22;2720;52.396;10.064;2023-03-15T01:13:32;-0.10;99.90
5394;DHT22;2720;52.396;10.064;2023-03-15T01:15:59;0.00;99.90
5394;DHT22;2720;52.396;10.064;2023-03-15T01:18:26;0.20;99.90
5394;DHT22;2720;52.396;10.064;2023-03-15T01:20:53;0.30;99.90
5394;DHT22;2720;52.396;10.064;2023-03-15T01:23:22;0.50;99.90
5394;DHT22;2720;52.396;10.064;2023-03-15T01:25:49;0.60;99.90
5394;DHT22;2720;52.396;10.064;2023-03-15T01:28:16;0.70;99.90
5394;DHT22;2720;52.396;10.064;2023-03-15T01:30:48;0.80;99.90
5394;DHT22;2720;52.396;10.064;2023-03-15T01:33:15;1.00;99.90
5394;DHT22;2720;52.396;10.064;2023-03-15T01:35:42;1.00;99.90
5394;DHT22;2720;52.396;10.064;2023-03-15T01:38:09;1.00;99.90
5394;DHT22;2720;52.396;10.064;2023-03-15T01:40:41;1.10;99.90
5394;DHT22;2720;52.396;10.064;2023-03-15T01:43:16;1.20;99.90
5394;DHT22;2720;52.396;10.064;2023-03-15T01:46:05;1.20;99.90
5394;DHT22;2720;52.396;10.064;2023-03-15T01:48:36;1.20;99.90
5394;DHT22;2720;52.396;10.064;2023-03-15T01:51:09;1.20;99.90
5394;DHT22;2720;52.396;10.064;2023-03-15T01:53:39;1.30;99.90
5394;DHT22;2720;52.396;10.064;2023-03-15T01:56:09;1.30;99.90
5394;DHT22;2720;52.396;10.064;2023-03-15T01:58:37;1.30;99.90
5394;DHT22;2720;52.396;10.064;2023-03-15T02:01:06;1.30;99.90
5394;DHT22;2720;52.396;10.064;2023-03-15T02:03:38;1.40;99.90
5394;DHT22;2720;52.396;10.064;2023-03-15T02:06:13;1.40;99.90
5394;DHT22;2720;52.396;10.064;2023-03-15T02:08:45;1.40;99.90
5394;DHT22;2720;52.396;10.064;2023-03-15T02:11:17;1.30;99.90
5394;DHT22;2720;52.396;10.064;2023-03-15T02:13:45;1.30;99.90
5394;DHT22;2720;52.396;10.064;2023-03-15T02:16:14;1.20;99.90
5394;DHT22;2720;52.396;10.064;2023-03-15T02:18:41;1.20;99.90
5394;DHT22;2720;52.396;10.064;2023-03-15T02:21:18;1.20;99.90
5394;DHT22;2720;52.396;10.064;2023-03-15T02:23:51;1.30;99.90
5394;DHT22;2720;52.396;10.064;2023-03-15T02:26:27;1.30;99.90
5394;DHT22;2720;52.396;10.064;2023-03-15T02:28:56;1.30;99.90
5394;DHT22;2720;52.396;10.064;2023-03-15T02:31:24;1.30;99.90
5394;DHT22;2720;52.396;10.064;2023-03-15T02:33:52;1.30;99.90
5394;DHT22;2720;52.396;10.064;2023-03-15T02:36:22;1.30;99.90
5394;DHT22;2720;52.396;10.064;2023-03-15T02:38:50;1.30;99.90
5394;DHT22;2720;52.396;10.064;2023-03-15T02:41:19;1.30;99.90
5394;DHT22;2720;52.396;10.064;2023-03-15T02:43:48;1.30;99.90
5394;DHT22;2720;52.396;10.064;2023-03-15T02:46:18;1.30;99.90
5394;DHT22;2720;52.396;10.064;2023-03-15T02:48:46;1.30;99.90
5394;DHT22;2720;52.396;10.064;2023-03-15T02:51:19;1.30;99.90
5394;DHT22;2720;52.396;10.064;2023-03-15T02:53:46;1.20;99.90
5394;DHT22;2720;52.396;10.064;2023-03-15T02:56:13;1.20;99.90
5394;DHT22;2720;52.396;10.064;2023-03-15T02:58:41;1.20;99.90
5394;DHT22;2720;52.396;10.064;2023-03-15T03:01:10;1.20;99.90
5394;DHT22;2720;52.396;10.064;2023-03-15T03:03:40;1.30;99.90
5394;DHT22;2720;52.396;10.064;2023-03-15T03:06:08;1.40;99.90
5394;DHT22;2720;52.396;10.064;2023-03-15T03:08:35;1.50;99.90
5394;DHT22;2720;52.396;10.064;2023-03-15T03:11:02;1.70;99.90
5394;DHT22;2720;52.396;10.064;2023-03-15T03:13:29;1.70;99.90
5394;DHT22;2720;52.396;10.064;2023-03-15T03:15:56;1.80;99.90
5394;DHT22;2720;52.396;10.064;2023-03-15T03:18:24;1.80;99.90
5394;DHT22;2720;52.396;10.064;2023-03-15T03:20:54;1.80;99.90
5394;DHT22;2720;52.396;10.064;2023-03-15T03:23:22;1.80;99.90
5394;DHT22;2720;52.396;10.064;2023-03-15T03:25:51;1.80;99.90
5394;DHT22;2720;52.396;10.064;2023-03-15T03:28:18;1.90;99.90
5394;DHT22;2720;52.396;10.064;2023-03-15T03:30:45;1.90;99.90
5394;DHT22;2720;52.396;10.064;2023-03-15T03:33:12;1.90;99.90
5394;DHT22;2720;52.396;10.064;2023-03-15T03:35:39;1.80;99.90
5394;DHT22;2720;52.396;10.064;2023-03-15T03:38:09;1.70;99.90
5394;DHT22;2720;52.396;10.064;2023-03-15T03:40:36;1.50;99.90
5394;DHT22;2720;52.396;10.064;2023-03-15T03:43:04;1.40;99.90
5394;DHT22;2720;52.396;10.064;2023-03-15T03:45:31;1.40;99.90
5394;DHT22;2720;52.396;10.064;2023-03-15T03:47:58;1.30;99.90
5394;DHT22;2720;52.396;10.064;2023-03-15T03:50:25;1.20;99.90
5394;DHT22;2720;52.396;10.064;2023-03-15T03:52:53;1.20;99.90
5394;DHT22;2720;52.396;10.064;2023-03-15T03:55:21;1.20;99.90
5394;DHT22;2720;52.396;10.064;2023-03-15T03:57:50;1.10;99.90
5394;DHT22;2720;52.396;10.064;2023-03-15T04:00:18;1.10;99.90
5394;DHT22;2720;52.396;10.064;2023-03-15T04:02:46;1.00;99.90
5394;DHT22;2720;52.396;10.064;2023-03-15T04:05:13;0.90;99.90
5394;DHT22;2720;52.396;10.064;2023-03-15T04:07:40;0.90;99.90
5394;DHT22;2720;52.396;10.064;2023-03-15T04:10:08;0.90;99.90
5394;DHT22;2720;52.396;10.064;2023-03-15T04:12:40;0.90;99.90
5394;DHT22;2720;52.396;10.064;2023-03-15T04:15:08;0.90;99.90
5394;DHT22;2720;52.396;10.064;2023-03-15T04:17:36;0.90;99.90
5394;DHT22;2720;52.396;10.064;2023-03-15T04:20:04;0.90;99.90
5394;DHT22;2720;52.396;10.064;2023-03-15T04:22:32;0.90;99.90
5394;DHT22;2720;52.396;10.064;2023-03-15T04:25:00;1.00;99.90
5394;DHT22;2720;52.396;10.064;2023-03-15T04:27:27;1.10;99.90
5394;DHT22;2720;52.396;10.064;2023-03-15T04:29:56;1.20;99.90
5394;DHT22;2720;52.396;10.064;2023-03-15T04:32:23;1.40;99.90
5394;DHT22;2720;52.396;10.064;2023-03-15T04:34:50;1.50;99.90
5394;DHT22;2720;52.396;10.064;2023-03-15T04:37:17;1.70;99.90
5394;DHT22;2720;52.396;10.064;2023-03-15T04:39:44;1.70;99.90
5394;DHT22;2720;52.396;10.064;2023-03-15T04:42:10;1.80;99.90
5394;DHT22;2720;52.396;10.064;2023-03-15T04:44:37;1.80;99.90
5394;DHT22;2720;52.396;10.064;2023-03-15T04:47:06;1.90;99.90
5394;DHT22;2720;52.396;10.064;2023-03-15T04:49:33;1.90;99.90
5394;DHT22;2720;52.396;10.064;2023-03-15T04:52:00;1.90;99.90
5394;DHT22;2720;52.396;10.064;2023-03-15T04:54:27;1.90;99.90
5394;DHT22;2720;52.396;10.064;2023-03-15T04:56:54;1.90;99.90
5394;DHT22;2720;52.396;10.064;2023-03-15T04:59:21;1.90;99.90
5394;DHT22;2720;52.396;10.064;2023-03-15T05:01:48;2.00;99.90
5394;DHT22;2720;52.396;10.064;2023-03-15T05:04:16;2.00;99.90
5394;DHT22;2720;52.396;10.064;2023-03-15T05:06:43;2.00;99.90
5394;DHT22;2720;52.396;10.064;2023-03-15T05:09:10;2.00;99.90
5394;DHT22;2720;52.396;10.064;2023-03-15T05:11:43;2.00;99.90
5394;DHT22;2720;52.396;10.064;2023-03-15T05:14:10;2.00;99.90
5394;DHT22;2720;52.396;10.064;2023-03-15T05:16:36;2.10;99.90
5394;DHT22;2720;52.396;10.064;2023-03-15T05:19:03;2.10;99.90
5394;DHT22;2720;52.396;10.064;2023-03-15T05:21:32;2.10;99.90
5394;DHT22;2720;52.396;10.064;2023-03-15T05:23:59;2.10;99.90
5394;DHT22;2720;52.396;10.064;2023-03-15T05:26:26;2.10;99.90
5394;DHT22;2720;52.396;10.064;2023-03-15T05:28:52;2.10;99.90
5394;DHT22;2720;52.396;10.064;2023-03-15T05:31:19;2.20;99.90
5394;DHT22;2720;52.396;10.064;2023-03-15T05:33:46;2.20;99.90
5394;DHT22;2720;52.396;10.064;2023-03-15T05:36:14;2.20;99.90
5394;DHT22;2720;52.396;10.064;2023-03-15T05:38:43;2.20;99.90
5394;DHT22;2720;52.396;10.064;2023-03-15T05:41:10;2.20;99.90
5394;DHT22;2720;52.396;10.064;2023-03-15T05:43:42;2.20;99.90
5394;DHT22;2720;52.396;10.064;2023-03-15T05:46:09;2.10;99.90
5394;DHT22;2720;52.396;10.064;2023-03-15T05:48:36;2.20;99.90
5394;DHT22;2720;52.396;10.064;2023-03-15T05:51:03;2.20;99.90
5394;DHT22;2720;52.396;10.064;2023-03-15T05:53:30;2.20;99.90
5394;DHT22;2720;52.396;10.064;2023-03-15T05:55:58;2.20;99.90
5394;DHT22;2720;52.396;10.064;2023-03-15T05:58:26;2.20;99.90
5394;DHT22;2720;52.396;10.064;2023-03-15T06:00:53;2.20;99.90
5394;DHT22;2720;52.396;10.064;2023-03-15T06:03:20;2.30;99.90
5394;DHT22;2720;52.396;10.064;2023-03-15T06:05:47;2.30;99.90
5394;DHT22;2720;52.396;10.064;2023-03-15T06:08:14;2.30;99.90
5394;DHT22;2720;52.396;10.064;2023-03-15T06:10:41;2.30;99.90
5394;DHT22;2720;52.396;10.064;2023-03-15T06:13:09;2.30;99.90
5394;DHT22;2720;52.396;10.064;2023-03-15T06:15:36;2.40;99.90
5394;DHT22;2720;52.396;10.064;2023-03-15T06:18:03;2.30;99.90
5394;DHT22;2720;52.396;10.064;2023-03-15T06:20:30;2.40;99.90
5394;DHT22;2720;52.396;10.064;2023-03-15T06:22:57;2.50;99.90
5394;DHT22;2720;52.396;10.064;2023-03-15T06:25:24;2.50;99.90
5394;DHT22;2720;52.396;10.064;2023-03-15T06:27:51;2.50;99.90
5394;DHT22;2720;52.396;10.064;2023-03-15T06:30:20;2.50;99.90
5394;DHT22;2720;52.396;10.064;2023-03-15T06:32:47;2.50;99.90
5394;DHT22;2720;52.396;10.064;2023-03-15T06:35:14;2.40;99.90
5394;DHT22;2720;52.396;10.064;2023-03-15T06:37:40;2.20;99.90
5394;DHT22;2720;52.396;10.064;2023-03-15T06:40:09;2.20;99.90
5394;DHT22;2720;52.396;10.064;2023-03-15T06:42:37;2.20;99.90
5394;DHT22;2720;52.396;10.064;2023-03-15T06:45:05;2.30;99.90
5394;DHT22;2720;52.396;10.064;2023-03-15T06:47:34;2.40;99.90
5394;DHT22;2720;52.396;10.064;2023-03-15T06:50:01;2.40;99.90
5394;DHT22;2720;52.396;10.064;2023-03-15T06:52:28;2.50;99.90
5394;DHT22;2720;52.396;10.064;2023-03-15T06:54:55;2.60;99.90
5394;DHT22;2720;52.396;10.064;2023-03-15T06:57:22;2.80;99.90
5394;DHT22;2720;52.396;10.064;2023-03-15T06:59:49;3.00;99.90
5394;DHT22;2720;52.396;10.064;2023-03-15T07:02:18;3.10;99.90
5394;DHT22;2720;52.396;10.064;2023-03-15T07:04:46;3.30;99.90
5394;DHT22;2720;52.396;10.064;2023-03-15T07:07:14;3.40;99.90
5394;DHT22;2720;52.396;10.064;2023-03-15T07:09:41;3.40;99.90
5394;DHT22;2720;52.396;10.064;2023-03-15T07:12:09;3.50;99.90
5394;DHT22;2720;52.396;10.064;2023-03-15T07:14:36;3.70;99.90
5394;DHT22;2720;52.396;10.064;2023-03-15T07:17:03;3.90;99.90
5394;DHT22;2720;52.396;10.064;2023-03-15T07:19:30;4.00;99.90
5394;DHT22;2720;52.396;10.064;2023-03-15T07:21:59;4.10;99.90
5394;DHT22;2720;52.396;10.064;2023-03-15T07:24:25;4.10;99.90
5394;DHT22;2720;52.396;10.064;2023-03-15T07:26:53;4.20;99.90
5394;DHT22;2720;52.396;10.064;2023-03-15T07:29:21;4.20;99.90
5394;DHT22;2720;52.396;10.064;2023-03-15T07:31:48;4.20;99.90
5394;DHT22;2720;52.396;10.064;2023-03-15T07:34:15;4.00;99.90
5394;DHT22;2720;52.396;10.064;2023-03-15T07:36:42;4.00;99.90
5394;DHT22;2720;52.396;10.064;2023-03-15T07:39:10;4.00;99.90
5394;DHT22;2720;52.396;10.064;2023-03-15T07:41:37;4.00;99.90
5394;DHT22;2720;52.396;10.064;2023-03-15T07:44:05;4.10;99.90
5394;DHT22;2720;52.396;10.064;2023-03-15T07:46:32;3.90;99.90
5394;DHT22;2720;52.396;10.064;2023-03-15T07:48:59;3.80;99.90
5394;DHT22;2720;52.396;10.064;2023-03-15T07:51:26;3.90;99.90
5394;DHT22;2720;52.396;10.064;2023-03-15T07:53:53;4.10;99.90
5394;DHT22;2720;52.396;10.064;2023-03-15T07:56:21;4.20;99.90
5394;DHT22;2720;52.396;10.064;2023-03-15T07:58:48;4.30;99.90
5394;DHT22;2720;52.396;10.064;2023-03-15T08:01:15;4.20;99.90
5394;DHT22;2720;52.396;10.064;2023-03-15T08:03:42;4.20;99.90
5394;DHT22;2720;52.396;10.064;2023-03-15T08:06:09;4.20;99.90
5394;DHT22;2720;52.396;10.064;2023-03-15T08:08:36;4.30;99.90
5394;DHT22;2720;52.396;10.064;2023-03-15T08:11:04;4.40;99.90
5394;DHT22;2720;52.396;10.064;2023-03-15T08:13:32;4.50;99.90
5394;DHT22;2720;52.396;10.064;2023-03-15T08:16:00;4.60;99.90
5394;DHT22;2720;52.396;10.064;2023-03-15T08:18:27;4.60;99.90
5394;DHT22;2720;52.396;10.064;2023-03-15T08:20:54;4.70;99.90
5394;DHT22;2720;52.396;10.064;2023-03-15T08:23:21;4.70;99.90
5394;DHT22;2720;52.396;10.064;2023-03-15T08:25:55;4.80;99.90
5394;DHT22;2720;52.396;10.064;2023-03-15T08:28:26;5.00;99.90
5394;DHT22;2720;52.396;10.064;2023-03-15T08:30:54;5.40;99.90
5394;DHT22;2720;52.396;10.064;2023-03-15T08:33:21;5.70;99.90
5394;DHT22;2720;52.396;10.064;2023-03-15T08:35:51;5.80;99.90
5394;DHT22;2720;52.396;10.064;2023-03-15T08:38:18;6.00;99.90
5394;DHT22;2720;52.396;10.064;2023-03-15T08:40:45;5.90;99.90
5394;DHT22;2720;52.396;10.064;2023-03-15T08:43:12;5.70;99.90
5394;DHT22;2720;52.396;10.064;2023-03-15T08:45:39;5.30;99.90
5394;DHT22;2720;52.396;10.064;2023-03-15T08:48:07;5.00;99.90
5394;DHT22;2720;52.396;10.064;2023-03-15T08:50:34;4.90;99.90
5394;DHT22;2720;52.396;10.064;2023-03-15T08:53:01;4.90;99.90
5394;DHT22;2720;52.396;10.064;2023-03-15T08:55:28;5.10;99.90
5394;DHT22;2720;52.396;10.064;2023-03-15T08:57:55;5.30;99.90
5394;DHT22;2720;52.396;10.064;2023-03-15T09:00:22;5.60;99.90
5394;DHT22;2720;52.396;10.064;2023-03-15T09:02:50;5.90;99.90
5394;DHT22;2720;52.396;10.064;2023-03-15T09:05:20;6.20;99.90
5394;DHT22;2720;52.396;10.064;2023-03-15T09:07:48;6.50;99.90
5394;DHT22;2720;52.396;10.064;2023-03-15T09:10:18;6.40;99.90
5394;DHT22;2720;52.396;10.064;2023-03-15T09:12:47;6.30;99.90
5394;DHT22;2720;52.396;10.064;2023-03-15T09:15:14;6.30;99.90
5394;DHT22;2720;52.396;10.064;2023-03-15T09:17:42;6.30;99.90
5394;DHT22;2720;52.396;10.064;2023-03-15T09:20:10;6.40;99.90
5394;DHT22;2720;52.396;10.064;2023-03-15T09:22:42;6.60;99.90
5394;DHT22;2720;52.396;10.064;2023-03-15T09:25:09;6.60;99.90
5394;DHT22;2720;52.396;10.064;2023-03-15T09:27:36;6.40;99.90
5394;DHT22;2720;52.396;10.064;2023-03-15T09:30:04;6.20;99.90
5394;DHT22;2720;52.396;10.064;2023-03-15T09:32:31;6.30;99.90
5394;DHT22;2720;52.396;10.064;2023-03-15T09:35:01;6.70;99.90
5394;DHT22;2720;52.396;10.064;2023-03-15T09:37:28;7.10;99.90
5394;DHT22;2720;52.396;10.064;2023-03-15T09:39:56;7.20;99.90
5394;DHT22;2720;52.396;10.064;2023-03-15T09:42:29;7.40;99.90
5394;DHT22;2720;52.396;10.064;2023-03-15T09:45:04;7.60;99.90
5394;DHT22;2720;52.396;10.064;2023-03-15T09:47:40;7.70;99.90
5394;DHT22;2720;52.396;10.064;2023-03-15T09:50:19;7.70;99.90
5394;DHT22;2720;52.396;10.064;2023-03-15T09:52:49;7.30;99.90
5394;DHT22;2720;52.396;10.064;2023-03-15T09:55:21;6.90;99.90
5394;DHT22;2720;52.396;10.064;2023-03-15T09:57:52;6.70;99.90
5394;DHT22;2720;52.396;10.064;2023-03-15T10:00:22;6.50;99.90
5394;DHT22;2720;52.396;10.064;2023-03-15T10:02:55;6.40;99.90
5394;DHT22;2720;52.396;10.064;2023-03-15T10:05:32;6.30;99.90
5394;DHT22;2720;52.396;10.064;2023-03-15T10:08:00;6.30;99.90
5394;DHT22;2720;52.396;10.064;2023-03-15T10:10:33;6.20;99.90
5394;DHT22;2720;52.396;10.064;2023-03-15T10:13:09;6.10;99.90
5394;DHT22;2720;52.396;10.064;2023-03-15T10:15:50;6.20;99.90
5394;DHT22;2720;52.396;10.064;2023-03-15T10:18:45;6.50;99.90
5394;DHT22;2720;52.396;10.064;2023-03-15T10:21:21;6.70;99.90
5394;DHT22;2720;52.396;10.064;2023-03-15T10:23:53;7.10;99.90
5394;DHT22;2720;52.396;10.064;2023-03-15T10:26:24;7.50;99.90
5394;DHT22;2720;52.396;10.064;2023-03-15T10:28:52;8.10;99.90
5394;DHT22;2720;52.396;10.064;2023-03-15T10:31:23;8.50;99.90
5394;DHT22;2720;52.396;10.064;2023-03-15T10:33:51;8.70;99.90
5394;DHT22;2720;52.396;10.064;2023-03-15T10:36:20;8.60;99.90
5394;DHT22;2720;52.396;10.064;2023-03-15T10:38:48;8.60;99.90
5394;DHT22;2720;52.396;10.064;2023-03-15T10:41:36;8.70;99.90
5394;DHT22;2720;52.396;10.064;2023-03-15T10:44:06;8.90;99.90
5394;DHT22;2720;52.396;10.064;2023-03-15T10:46:36;9.10;99.90
5394;DHT22;2720;52.396;10.064;2023-03-15T10:49:09;9.10;99.90
5394;DHT22;2720;52.396;10.064;2023-03-15T10:51:39;8.80;99.90
5394;DHT22;2720;52.396;10.064;2023-03-15T10:54:12;8.60;99.90
5394;DHT22;2720;52.396;10.064;2023-03-15T10:56:48;8.60;99.90
5394;DHT22;2720;52.396;10.064;2023-03-15T10:59:18;8.50;99.90
5394;DHT22;2720;52.396;10.064;2023-03-15T11:01:47;8.50;99.90
5394;DHT22;2720;52.396;10.064;2023-03-15T11:04:17;8.60;99.90
5394;DHT22;2720;52.396;10.064;2023-03-15T11:06:46;8.70;99.90
5394;DHT22;2720;52.396;10.064;2023-03-15T11:09:15;8.80;99.90
5394;DHT22;2720;52.396;10.064;2023-03-15T11:11:57;8.80;99.90
5394;DHT22;2720;52.396;10.064;2023-03-15T11:14:24;9.00;99.90
5394;DHT22;2720;52.396;10.064;2023-03-15T11:16:54;9.00;99.90
5394;DHT22;2720;52.396;10.064;2023-03-15T11:19:25;9.30;99.90
5394;DHT22;2720;52.396;10.064;2023-03-15T11:21:53;9.40;99.90
5394;DHT22;2720;52.396;10.064;2023-03-15T11:24:23;9.40;99.90
5394;DHT22;2720;52.396;10.064;2023-03-15T11:26:54;9.30;99.90
5394;DHT22;2720;52.396;10.064;2023-03-15T11:29:23;9.20;99.90
5394;DHT22;2720;52.396;10.064;2023-03-15T11:31:52;9.10;99.90
5394;DHT22;2720;52.396;10.064;2023-03-15T11:34:35;9.30;99.90
5394;DHT22;2720;52.396;10.064;2023-03-15T11:37:10;9.40;99.90
5394;DHT22;2720;52.396;10.064;2023-03-15T11:39:42;9.10;99.90
5394;DHT22;2720;52.396;10.064;2023-03-15T11:42:16;8.50;99.90
5394;DHT22;2720;52.396;10.064;2023-03-15T11:44:46;7.90;99.90
5394;DHT22;2720;52.396;10.064;2023-03-15T11:47:19;7.50;99.90
5394;DHT22;2720;52.396;10.064;2023-03-15T11:49:50;7.70;99.90
5394;DHT22;2720;52.396;10.064;2023-03-15T11:52:20;8.30;99.90
5394;DHT22;2720;52.396;10.064;2023-03-15T11:54:48;8.90;99.90
5394;DHT22;2720;52.396;10.064;2023-03-15T11:57:40;9.30;99.90
5394;DHT22;2720;52.396;10.064;2023-03-15T12:00:20;9.60;99.90
5394;DHT22;2720;52.396;10.064;2023-03-15T12:02:53;10.00;99.90
5394;DHT22;2720;52.396;10.064;2023-03-15T12:05:42;10.60;99.90
5394;DHT22;2720;52.396;10.064;2023-03-15T12:08:19;10.80;99.90
5394;DHT22;2720;52.396;10.064;2023-03-15T12:10:47;10.90;99.90
5394;DHT22;2720;52.396;10.064;2023-03-15T12:13:34;10.70;99.90
5394;DHT22;2720;52.396;10.064;2023-03-15T12:16:05;10.50;99.90
5394;DHT22;2720;52.396;10.064;2023-03-15T12:18:39;10.10;99.90
5394;DHT22;2720;52.396;10.064;2023-03-15T12:21:20;9.80;99.90
5394;DHT22;2720;52.396;10.064;2023-03-15T12:23:59;9.40;99.90
5394;DHT22;2720;52.396;10.064;2023-03-15T12:26:38;8.70;99.90
5394;DHT22;2720;52.396;10.064;2023-03-15T12:29:16;8.30;99.90
5394;DHT22;2720;52.396;10.064;2023-03-15T12:31:49;8.60;99.90
5394;DHT22;2720;52.396;10.064;2023-03-15T12:34:36;9.10;99.90
5394;DHT22;2720;52.396;10.064;2023-03-15T12:37:06;9.20;99.90
5394;DHT22;2720;52.396;10.064;2023-03-15T12:39:58;8.90;99.90
5394;DHT22;2720;52.396;10.064;2023-03-15T12:45:41;7.80;99.90
5394;DHT22;2720;52.396;10.064;2023-03-15T12:48:32;6.90;99.90
5394;DHT22;2720;52.396;10.064;2023-03-15T12:51:10;5.90;99.90
5394;DHT22;2720;52.396;10.064;2023-03-15T12:53:49;5.80;99.90
5394;DHT22;2720;52.396;10.064;2023-03-15T12:56:42;5.70;99.90
5394;DHT22;2720;52.396;10.064;2023-03-15T12:59:29;5.30;99.90
5394;DHT22;2720;52.396;10.064;2023-03-15T13:02:01;4.50;99.90
5394;DHT22;2720;52.396;10.064;2023-03-15T13:04:28;4.30;99.90
5394;DHT22;2720;52.396;10.064;2023-03-15T13:07:22;4.50;99.90
5394;DHT22;2720;52.396;10.064;2023-03-15T13:10:11;5.00;99.90
5394;DHT22;2720;52.396;10.064;2023-03-15T13:12:46;5.50;99.90
5394;DHT22;2720;52.396;10.064;2023-03-15T13:15:20;5.80;99.90
5394;DHT22;2720;52.396;10.064;2023-03-15T13:17:51;6.30;99.90
5394;DHT22;2720;52.396;10.064;2023-03-15T13:20:43;6.70;99.90
5394;DHT22;2720;52.396;10.064;2023-03-15T13:23:15;6.90;99.90
5394;DHT22;2720;52.396;10.064;2023-03-15T13:25:51;6.60;99.90
5394;DHT22;2720;52.396;10.064;2023-03-15T13:28:22;6.00;99.90
5394;DHT22;2720;52.396;10.064;2023-03-15T13:30:51;5.70;99.90
5394;DHT22;2720;52.396;10.064;2023-03-15T13:33:21;5.70;99.90
5394;DHT22;2720;52.396;10.064;2023-03-15T13:35:55;5.60;99.90
5394;DHT22;2720;52.396;10.064;2023-03-15T13:38:31;5.70;99.90
5394;DHT22;2720;52.396;10.064;2023-03-15T13:40:59;6.00;99.90
5394;DHT22;2720;52.396;10.064;2023-03-15T13:43:30;6.10;99.90
5394;DHT22;2720;52.396;10.064;2023-03-15T13:45:58;6.10;99.90
5394;DHT22;2720;52.396;10.064;2023-03-15T13:48:30;6.10;99.90
5394;DHT22;2720;52.396;10.064;2023-03-15T13:51:02;6.30;99.90
5394;DHT22;2720;52.396;10.064;2023-03-15T13:53:31;6.60;99.90
5394;DHT22;2720;52.396;10.064;2023-03-15T13:55:58;6.80;99.90
5394;DHT22;2720;52.396;10.064;2023-03-15T13:58:26;6.50;99.90
5394;DHT22;2720;52.396;10.064;2023-03-15T14:00:58;6.50;99.90
5394;DHT22;2720;52.396;10.064;2023-03-15T14:03:28;6.60;99.90
5394;DHT22;2720;52.396;10.064;2023-03-15T14:05:56;6.70;99.90
5394;DHT22;2720;52.396;10.064;2023-03-15T14:08:26;6.70;99.90
5394;DHT22;2720;52.396;10.064;2023-03-15T14:10:58;6.80;99.90
5394;DHT22;2720;52.396;10.064;2023-03-15T14:13:27;6.60;99.90
5394;DHT22;2720;52.396;10.064;2023-03-15T14:15:58;6.70;99.90
5394;DHT22;2720;52.396;10.064;2023-03-15T14:18:31;6.60;99.90
5394;DHT22;2720;52.396;10.064;2023-03-15T14:21:00;6.50;99.90
5394;DHT22;2720;52.396;10.064;2023-03-15T14:23:30;6.40;99.90
5394;DHT22;2720;52.396;10.064;2023-03-15T14:26:05;6.30;99.90
5394;DHT22;2720;52.396;10.064;2023-03-15T14:28:33;6.40;99.90
5394;DHT22;2720;52.396;10.064;2023-03-15T14:31:00;6.40;99.90
5394;DHT22;2720;52.396;10.064;2023-03-15T14:33:32;6.50;99.90
5394;DHT22;2720;52.396;10.064;2023-03-15T14:36:01;6.60;99.90
5394;DHT22;2720;52.396;10.064;2023-03-15T14:38:33;6.50;99.90
5394;DHT22;2720;52.396;10.064;2023-03-15T14:41:18;6.60;99.90
5394;DHT22;2720;52.396;10.064;2023-03-15T14:43:48;6.60;99.90
5394;DHT22;2720;52.396;10.064;2023-03-15T14:46:15;6.60;99.90
5394;DHT22;2720;52.396;10.064;2023-03-15T14:48:43;6.60;99.90
5394;DHT22;2720;52.396;10.064;2023-03-15T14:51:13;6.50;99.90
5394;DHT22;2720;52.396;10.064;2023-03-15T14:53:42;6.40;99.90
5394;DHT22;2720;52.396;10.064;2023-03-15T14:56:10;6.40;99.90
5394;DHT22;2720;52.396;10.064;2023-03-15T14:58:39;6.50;99.90
5394;DHT22;2720;52.396;10.064;2023-03-15T15:01:06;6.40;99.90
5394;DHT22;2720;52.396;10.064;2023-03-15T15:03:37;6.50;99.90
5394;DHT22;2720;52.396;10.064;2023-03-15T15:06:08;6.50;99.90
5394;DHT22;2720;52.396;10.064;2023-03-15T15:08:37;6.60;99.90
5394;DHT22;2720;52.396;10.064;2023-03-15T15:11:07;6.70;99.90
5394;DHT22;2720;52.396;10.064;2023-03-15T15:13:35;6.50;99.90
5394;DHT22;2720;52.396;10.064;2023-03-15T15:16:02;6.40;99.90
5394;DHT22;2720;52.396;10.064;2023-03-15T15:18:31;6.30;99.90
5394;DHT22;2720;52.396;10.064;2023-03-15T15:21:01;6.30;99.90
5394;DHT22;2720;52.396;10.064;2023-03-15T15:23:32;6.20;99.90
5394;DHT22;2720;52.396;10.064;2023-03-15T15:26:02;6.30;99.90
5394;DHT22;2720;52.396;10.064;2023-03-15T15:28:31;6.40;99.90
5394;DHT22;2720;52.396;10.064;2023-03-15T15:30:58;6.50;99.90
5394;DHT22;2720;52.396;10.064;2023-03-15T15:33:25;6.60;99.90
5394;DHT22;2720;52.396;10.064;2023-03-15T15:35:54;6.60;99.90
5394;DHT22;2720;52.396;10.064;2023-03-15T15:38:22;6.60;99.90
5394;DHT22;2720;52.396;10.064;2023-03-15T15:40:53;6.60;99.90
5394;DHT22;2720;52.396;10.064;2023-03-15T15:43:20;6.60;99.90
5394;DHT22;2720;52.396;10.064;2023-03-15T15:45:47;6.70;99.90
5394;DHT22;2720;52.396;10.064;2023-03-15T15:48:14;6.80;99.90
5394;DHT22;2720;52.396;10.064;2023-03-15T15:50:41;6.90;99.90
5394;DHT22;2720;52.396;10.064;2023-03-15T15:53:12;7.00;99.90
5394;DHT22;2720;52.396;10.064;2023-03-15T15:55:41;6.90;99.90
5394;DHT22;2720;52.396;10.064;2023-03-15T15:58:10;6.80;99.90
5394;DHT22;2720;52.396;10.064;2023-03-15T16:00:38;6.70;99.90
5394;DHT22;2720;52.396;10.064;2023-03-15T16:03:11;6.80;99.90
5394;DHT22;2720;52.396;10.064;2023-03-15T16:05:39;6.80;99.90
5394;DHT22;2720;52.396;10.064;2023-03-15T16:08:08;6.80;99.90
5394;DHT22;2720;52.396;10.064;2023-03-15T16:10:39;6.70;99.90
5394;DHT22;2720;52.396;10.064;2023-03-15T16:13:10;6.50;99.90
5394;DHT22;2720;52.396;10.064;2023-03-15T16:15:38;6.50;99.90
5394;DHT22;2720;52.396;10.064;2023-03-15T16:18:08;6.50;99.90
5394;DHT22;2720;52.396;10.064;2023-03-15T16:20:35;6.30;99.90